KLLQ

Monticello Municipal / Ellis Field Airport

Monticello, Arkansas, USA
KLLQ 251123Z 2512/2612 23004KT P6SM SCT060 BKN250 TEMPO 2512/2515 BKN025 FM251500 23008KT P6SM SCT030 BKN060 FM251800 22008KT P6SM SCT045 BKN250 FM260000 18004KT P6SM BKN250
Issued Valid From Valid To
Jun-25 @ 11:23 UTC
(4 hours ago)
Jun-25 @ 12:00 UTC
(4 hours ago)
Jun-26 @ 12:00 UTC
(in 20 hours)
Expired Click to View Jun-25 @ 12:00 to Jun-25 @ 15:00
KLLQ 251123Z 2512/2612 23004KT P6SM SCT060 BKN250
Wind Visibility Clouds
230° at 4 knots Greater than 6 miles
  • Scattered at 6,000' AGL
  • Broken at 25,000' AGL
Expired Click to View Jun-25 @ 12:00 to Jun-25 @ 15:00
TEMPO 2512/2515 BKN025
Clouds
  • Broken at 2,500' AGL
From Jun-25 @ 15:00 to Jun-25 @ 18:00
FM251500 23008KT P6SM SCT030 BKN060
Wind Visibility Clouds
230° at 8 knots Greater than 6 miles
  • Scattered at 3,000' AGL
  • Broken at 6,000' AGL
From Jun-25 @ 18:00 to Jun-26 @ 00:00
FM251800 22008KT P6SM SCT045 BKN250
Wind Visibility Clouds
220° at 8 knots Greater than 6 miles
  • Scattered at 4,500' AGL
  • Broken at 25,000' AGL
From Jun-26 @ 00:00 to Jun-26 @ 12:00
FM260000 18004KT P6SM BKN250
Wind Visibility Clouds
180° at 4 knots Greater than 6 miles
  • Broken at 25,000' AGL
KLLQ 251123Z 2512/2612 23004KT P6SM SCT060 BKN250 TEMPO 2512/2515 BKN025 FM251500 23008KT P6SM SCT030 BKN060 FM251800 22008KT P6SM SCT045 BKN250 FM260000 18004KT P6SM BKN250
Issued Jun-25 @ 11:23 UTC
(4 hours ago)
Valid From Jun-25 @ 12:00 UTC
(4 hours ago)
Valid To Jun-26 @ 12:00 UTC
(in 20 hours)
Jun-25 @ 12:00 - Jun-25 @ 15:00
Wind Visibility
230° at 4 knots Greater than 6 miles
Clouds
  • Scattered at 6,000' AGL
  • Broken at 25,000' AGL
Jun-25 @ 12:00 - Jun-25 @ 15:00
Clouds
  • Broken at 2,500' AGL
From Jun-25 @ 15:00 - Jun-25 @ 18:00
Wind Visibility
230° at 8 knots Greater than 6 miles
Clouds
  • Scattered at 3,000' AGL
  • Broken at 6,000' AGL
From Jun-25 @ 18:00 - Jun-26 @ 00:00
Wind Visibility
220° at 8 knots Greater than 6 miles
Clouds
  • Scattered at 4,500' AGL
  • Broken at 25,000' AGL
From Jun-26 @ 00:00 - Jun-26 @ 12:00
Wind Visibility
180° at 4 knots Greater than 6 miles
Clouds
  • Broken at 25,000' AGL